Time;durP1;ratioP1;P1;durP2;ratioP2;P2;SDS_P1;SDS_P2;PMS_P1;PMS_P2;Temp;Humidity;BMP_temperature;BMP_pressure;BME280_temperature;BME280_humidity;BME280_pressure;Samples;Min_cycle;Max_cycle;Signal;HPM_P1;HPM_P2
2021/07/30 00:00:31;;;;;;;2.20;1.15;;;24.90;44.50;;;;;;5032998;28;20052;-54
2021/07/30 00:02:58;;;;;;;1.55;0.57;;;24.80;44.60;;;;;;5034947;28;20092;-50
2021/07/30 00:05:25;;;;;;;5.35;0.30;;;24.80;44.70;;;;;;5041949;28;20087;-54
2021/07/30 00:07:52;;;;;;;1.10;0.20;;;24.80;44.80;;;;;;5035984;28;20056;-52
2021/07/30 00:10:20;;;;;;;1.27;0.28;;;24.70;44.80;;;;;;5031221;28;20092;-55
2021/07/30 00:12:50;;;;;;;1.73;0.40;;;24.80;44.90;;;;;;5036347;28;20111;-53
2021/07/30 00:15:17;;;;;;;1.65;0.10;;;24.70;44.90;;;;;;5033455;28;20059;-53
2021/07/30 00:17:44;;;;;;;1.73;0.40;;;24.70;44.90;;;;;;5035043;28;20510;-54
2021/07/30 00:20:11;;;;;;;1.60;0.20;;;24.70;45.00;;;;;;5040556;28;20137;-54
2021/07/30 00:22:38;;;;;;;2.70;0.30;;;24.70;45.10;;;;;;5047316;28;20048;-54
2021/07/30 00:25:06;;;;;;;1.75;0.35;;;24.70;45.10;;;;;;5036028;28;20036;-56
2021/07/30 00:27:41;;;;;;;0.30;0.20;;;24.60;45.20;;;;;;5036016;28;20065;-55
2021/07/30 00:30:10;;;;;;;1.05;0.20;;;24.60;45.20;;;;;;5032629;28;20041;-56
2021/07/30 00:32:37;;;;;;;0.63;0.22;;;24.60;45.30;;;;;;5037094;28;20526;-55
2021/07/30 00:35:05;;;;;;;2.28;0.28;;;24.60;45.40;;;;;;5035391;28;20037;-56
2021/07/30 00:37:32;;;;;;;4.53;0.20;;;24.60;45.40;;;;;;5035116;28;20129;-56
2021/07/30 00:39:59;;;;;;;0.55;0.10;;;24.60;45.50;;;;;;5044457;28;20225;-53
2021/07/30 00:42:28;;;;;;;2.58;0.20;;;24.60;45.50;;;;;;5042464;28;20049;-53
2021/07/30 00:44:56;;;;;;;4.45;0.50;;;24.50;45.60;;;;;;5038134;28;20041;-54
2021/07/30 00:47:24;;;;;;;2.03;0.15;;;24.50;45.60;;;;;;5044138;28;20124;-55
2021/07/30 00:49:51;;;;;;;7.88;0.52;;;24.50;45.70;;;;;;5037867;28;20057;-49
2021/07/30 00:52:18;;;;;;;1.33;0.25;;;24.50;45.80;;;;;;5035351;28;20159;-53
2021/07/30 00:54:45;;;;;;;0.60;0.10;;;24.40;45.80;;;;;;5035583;28;20111;-51
2021/07/30 00:57:12;;;;;;;2.08;0.28;;;24.40;45.80;;;;;;5035600;28;20039;-52
2021/07/30 00:59:40;;;;;;;1.23;0.20;;;24.40;45.80;;;;;;5039892;28;20124;-51
2021/07/30 01:02:09;;;;;;;1.70;0.20;;;24.40;45.90;;;;;;5039887;28;20047;-52
2021/07/30 01:04:36;;;;;;;1.55;0.50;;;24.40;45.90;;;;;;5046129;28;20044;-53
2021/07/30 01:07:03;;;;;;;0.43;0.35;;;24.40;45.90;;;;;;5035358;28;20060;-51
2021/07/30 01:09:30;;;;;;;2.40;0.20;;;24.40;46.00;;;;;;5035656;28;20057;-55
2021/07/30 01:12:01;;;;;;;3.03;0.17;;;24.40;46.00;;;;;;5034888;28;20046;-50
2021/07/30 01:14:31;;;;;;;1.20;0.25;;;24.30;46.00;;;;;;5045914;28;20466;-56
2021/07/30 01:16:58;;;;;;;6.28;0.30;;;24.30;46.10;;;;;;5041773;28;20099;-50
2021/07/30 01:19:27;;;;;;;0.20;0.20;;;24.30;46.10;;;;;;5034326;28;20175;-56
2021/07/30 01:21:55;;;;;;;0.90;0.20;;;24.30;46.10;;;;;;5045962;28;20041;-53
2021/07/30 01:24:26;;;;;;;0.50;0.20;;;24.30;46.10;;;;;;5037325;28;20128;-56
2021/07/30 01:26:54;;;;;;;2.58;0.60;;;24.30;46.20;;;;;;5040107;28;20046;-55
2021/07/30 01:29:21;;;;;;;2.00;0.20;;;24.20;46.10;;;;;;5038225;28;20779;-56
2021/07/30 01:31:49;;;;;;;1.90;0.20;;;24.20;46.10;;;;;;5037142;28;20077;-57
2021/07/30 01:34:16;;;;;;;2.75;0.20;;;24.20;46.20;;;;;;5044711;28;20503;-56
2021/07/30 01:36:43;;;;;;;0.60;0.17;;;24.20;46.20;;;;;;5034217;28;20088;-57
2021/07/30 01:39:10;;;;;;;0.98;0.30;;;24.20;46.20;;;;;;5039197;28;20129;-58
2021/07/30 01:41:39;;;;;;;1.42;0.28;;;24.20;46.20;;;;;;5034643;28;20085;-56
2021/07/30 01:44:06;;;;;;;3.72;0.20;;;24.20;46.20;;;;;;5034547;28;20042;-56
2021/07/30 01:46:33;;;;;;;0.40;0.40;;;24.20;46.30;;;;;;5044783;28;20047;-58
2021/07/30 01:49:00;;;;;;;2.72;0.30;;;24.20;46.30;;;;;;5035424;28;20044;-57
2021/07/30 01:51:27;;;;;;;2.88;0.17;;;24.20;46.30;;;;;;5043773;28;20053;-51
2021/07/30 01:53:54;;;;;;;0.20;0.10;;;24.10;46.30;;;;;;5039971;28;20135;-55
2021/07/30 01:56:21;;;;;;;2.35;0.32;;;24.10;46.90;;;;;;5043889;28;20129;-55
2021/07/30 01:58:51;;;;;;;0.25;0.25;;;24.10;46.30;;;;;;5046609;28;20590;-57
2021/07/30 02:01:18;;;;;;;2.03;0.38;;;24.10;46.30;;;;;;5036372;28;20041;-54
2021/07/30 02:03:45;;;;;;;0.77;0.20;;;24.10;46.30;;;;;;5038721;28;20041;-55
2021/07/30 02:06:12;;;;;;;1.60;0.20;;;24.10;46.40;;;;;;5050781;28;20069;-56
2021/07/30 02:08:39;;;;;;;5.20;1.58;;;24.10;46.40;;;;;;5049465;28;20061;-54
2021/07/30 02:11:09;;;;;;;4.25;0.45;;;24.00;46.40;;;;;;5049429;28;20053;-53
2021/07/30 02:16:23;;;;;;;0.25;0.13;;;24.00;46.40;;;;;;5049053;28;20049;-55
2021/07/30 02:18:51;;;;;;;4.43;0.20;;;24.00;46.40;;;;;;5038729;28;20106;-56
2021/07/30 02:21:19;;;;;;;0.75;0.65;;;24.00;46.50;;;;;;5040822;28;20103;-57
2021/07/30 02:23:46;;;;;;;0.60;0.40;;;23.90;46.40;;;;;;5043830;28;20029;-57
2021/07/30 02:26:13;;;;;;;3.42;0.20;;;23.90;46.50;;;;;;5038823;28;20137;-57
2021/07/30 02:28:40;;;;;;;0.22;0.20;;;24.00;46.50;;;;;;5048430;28;20132;-58
2021/07/30 02:31:07;;;;;;;1.85;0.20;;;23.90;46.60;;;;;;5039012;28;20041;-57
2021/07/30 02:33:36;;;;;;;1.17;0.20;;;23.90;46.60;;;;;;5038843;28;20128;-58
2021/07/30 02:36:03;;;;;;;4.07;0.35;;;23.90;46.60;;;;;;5038291;28;20049;-57
2021/07/30 02:38:30;;;;;;;4.22;0.30;;;23.90;46.70;;;;;;5043154;28;20132;-58
2021/07/30 02:40:57;;;;;;;1.13;0.20;;;23.90;46.70;;;;;;5038332;28;20517;-59
2021/07/30 02:43:24;;;;;;;0.82;0.25;;;23.90;46.70;;;;;;5048553;28;20045;-56
2021/07/30 02:45:51;;;;;;;1.85;0.20;;;23.90;46.70;;;;;;5038518;28;20065;-56
2021/07/30 02:48:18;;;;;;;2.20;1.05;;;23.80;46.70;;;;;;5035669;28;20857;-56
2021/07/30 02:50:48;;;;;;;0.50;0.10;;;23.80;46.70;;;;;;5032774;28;20099;-57
2021/07/30 02:53:15;;;;;;;0.98;0.22;;;23.90;46.90;;;;;;5039927;28;20106;-51
2021/07/30 02:55:45;;;;;;;0.88;0.38;;;23.80;47.40;;;;;;5048507;28;20051;-56
2021/07/30 02:58:12;;;;;;;2.50;0.52;;;23.80;46.90;;;;;;5045599;28;20538;-53
2021/07/30 03:00:39;;;;;;;4.57;0.13;;;23.80;46.90;;;;;;5045355;28;20041;-55
2021/07/30 03:03:06;;;;;;;1.25;0.20;;;23.80;47.00;;;;;;5043933;28;20466;-52
2021/07/30 03:05:34;;;;;;;0.55;0.20;;;23.70;47.00;;;;;;5040331;28;20048;-54
2021/07/30 03:08:02;;;;;;;2.45;0.10;;;23.70;47.00;;;;;;5041846;28;20426;-55
2021/07/30 03:10:29;;;;;;;0.95;0.15;;;23.70;47.10;;;;;;5039729;28;20061;-54
2021/07/30 03:12:56;;;;;;;1.15;0.30;;;23.70;47.10;;;;;;5034565;28;20040;-52
2021/07/30 03:15:23;;;;;;;2.58;0.20;;;23.70;47.20;;;;;;5049780;28;20055;-54
2021/07/30 03:17:50;;;;;;;0.82;0.40;;;23.70;47.20;;;;;;5042686;28;20108;-54
2021/07/30 03:20:17;;;;;;;1.65;0.15;;;23.70;47.30;;;;;;5042083;28;20031;-54
2021/07/30 03:22:45;;;;;;;5.38;0.75;;;23.70;47.30;;;;;;5038593;28;20049;-55
2021/07/30 03:25:13;;;;;;;1.17;0.20;;;23.70;47.30;;;;;;5034232;28;20059;-55
2021/07/30 03:27:42;;;;;;;1.38;0.32;;;23.70;47.40;;;;;;5037420;28;20069;-56
2021/07/30 03:30:10;;;;;;;3.83;0.38;;;23.70;47.40;;;;;;5041868;28;20033;-52
2021/07/30 03:32:37;;;;;;;2.10;0.30;;;23.70;47.40;;;;;;5042268;28;20037;-52
2021/07/30 03:35:05;;;;;;;2.40;0.30;;;23.70;47.40;;;;;;5047617;28;20115;-54
2021/07/30 03:37:32;;;;;;;0.28;0.10;;;23.60;47.30;;;;;;5036832;28;20044;-58
2021/07/30 03:39:59;;;;;;;2.30;0.20;;;23.60;47.30;;;;;;5047807;28;20124;-58
2021/07/30 03:42:28;;;;;;;2.40;0.17;;;23.60;47.30;;;;;;5029125;28;20095;-58
2021/07/30 03:44:55;;;;;;;5.68;1.52;;;23.60;47.30;;;;;;5047855;28;20140;-57
2021/07/30 03:47:22;;;;;;;4.68;0.75;;;23.60;47.30;;;;;;5041903;28;20060;-57
2021/07/30 03:49:49;;;;;;;1.80;0.20;;;23.60;47.30;;;;;;5047136;28;20037;-56
2021/07/30 03:52:18;;;;;;;0.75;0.22;;;23.60;47.90;;;;;;5047420;28;20134;-58
2021/07/30 03:54:45;;;;;;;0.40;0.20;;;23.60;47.30;;;;;;5047653;28;20111;-57
2021/07/30 03:57:12;;;;;;;1.67;0.28;;;23.60;47.30;;;;;;5047489;28;20037;-58
2021/07/30 03:59:40;;;;;;;2.63;1.45;;;23.60;47.30;;;;;;5038508;28;20045;-58
2021/07/30 04:02:07;;;;;;;2.92;0.38;;;23.60;47.40;;;;;;5037962;28;20485;-55
2021/07/30 04:04:35;;;;;;;2.95;0.40;;;23.50;47.40;;;;;;5035363;28;20055;-52
2021/07/30 04:07:02;;;;;;;3.13;0.25;;;23.60;47.50;;;;;;5045436;28;20033;-53
2021/07/30 04:09:29;;;;;;;0.95;0.30;;;23.50;47.50;;;;;;5041662;28;20594;-53
2021/07/30 04:11:56;;;;;;;1.00;0.20;;;23.50;47.50;;;;;;5035944;28;20034;-48
2021/07/30 04:14:23;;;;;;;2.63;0.80;;;23.50;47.60;;;;;;5039331;28;20480;-57
2021/07/30 04:16:51;;;;;;;1.73;0.30;;;23.50;47.60;;;;;;5044308;28;20133;-57
2021/07/30 04:19:18;;;;;;;2.25;0.22;;;23.50;47.70;;;;;;5033874;28;20210;-57
2021/07/30 04:21:46;;;;;;;0.17;0.10;;;23.50;47.70;;;;;;5035647;28;20041;-55
2021/07/30 04:24:13;;;;;;;3.33;0.20;;;23.50;47.70;;;;;;5031920;28;20128;-56
2021/07/30 04:26:40;;;;;;;1.85;0.38;;;23.40;47.70;;;;;;5044488;28;20069;-55
2021/07/30 04:29:07;;;;;;;2.00;0.30;;;23.50;47.80;;;;;;5046580;28;20041;-55
2021/07/30 04:31:37;;;;;;;0.70;0.20;;;23.40;47.80;;;;;;5035142;28;20045;-53
2021/07/30 04:34:06;;;;;;;0.40;0.20;;;23.40;47.90;;;;;;5031475;28;20090;-52
2021/07/30 04:36:33;;;;;;;0.63;0.30;;;23.40;48.00;;;;;;5040232;28;20049;-57
2021/07/30 04:39:00;;;;;;;2.70;0.30;;;23.40;48.00;;;;;;5040648;28;20578;-58
2021/07/30 04:41:27;;;;;;;0.90;0.30;;;23.40;48.00;;;;;;5042562;28;20056;-57
2021/07/30 04:43:54;;;;;;;0.82;0.38;;;23.40;48.10;;;;;;5035922;28;20076;-56
2021/07/30 04:46:21;;;;;;;1.40;0.20;;;23.40;48.20;;;;;;5047335;28;20111;-54
2021/07/30 04:48:48;;;;;;;1.38;0.20;;;23.40;48.20;;;;;;5035869;28;20136;-54
2021/07/30 04:51:18;;;;;;;3.20;0.20;;;23.40;48.30;;;;;;5033935;28;20124;-54
2021/07/30 04:53:46;;;;;;;1.17;0.20;;;23.40;48.30;;;;;;5038898;28;20554;-53
2021/07/30 04:56:18;;;;;;;1.85;0.20;;;23.40;48.40;;;;;;5036953;28;20042;-52
2021/07/30 04:58:45;;;;;;;1.77;0.20;;;23.40;48.40;;;;;;5038641;28;20087;-49
2021/07/30 05:01:13;;;;;;;2.15;0.20;;;23.40;48.40;;;;;;5033965;28;20123;-54
2021/07/30 05:03:40;;;;;;;1.02;0.52;;;23.30;48.30;;;;;;5041212;28;20056;-53
2021/07/30 05:06:14;;;;;;;4.03;0.30;;;23.30;48.30;;;;;;5036359;28;20131;-54
2021/07/30 05:08:43;;;;;;;2.13;0.30;;;23.30;48.30;;;;;;5033812;28;20049;-53
2021/07/30 05:11:11;;;;;;;3.50;1.00;;;23.30;48.20;;;;;;5041228;28;20033;-52
2021/07/30 05:13:39;;;;;;;0.88;0.35;;;23.30;48.10;;;;;;5031085;28;20300;-51
2021/07/30 05:16:07;;;;;;;2.05;0.20;;;23.30;48.10;;;;;;5039009;28;20047;-51
2021/07/30 05:18:34;;;;;;;2.03;0.17;;;23.30;48.00;;;;;;5029472;28;20132;-55
2021/07/30 05:21:04;;;;;;;0.68;0.45;;;23.20;47.90;;;;;;5041071;28;20065;-51
2021/07/30 05:23:31;;;;;;;2.08;0.82;;;23.20;47.90;;;;;;5032927;28;20043;-56
2021/07/30 05:26:00;;;;;;;2.88;0.30;;;23.20;47.90;;;;;;5039180;28;20041;-55
2021/07/30 05:28:28;;;;;;;0.82;0.20;;;23.20;47.90;;;;;;5050040;28;20045;-56
2021/07/30 05:30:57;;;;;;;4.70;0.20;;;23.20;47.90;;;;;;5036874;28;20049;-52
2021/07/30 05:33:24;;;;;;;1.40;0.20;;;23.20;47.90;;;;;;5043389;28;20426;-52
2021/07/30 05:35:51;;;;;;;0.73;0.40;;;23.20;48.00;;;;;;5045530;28;20042;-49
2021/07/30 05:38:19;;;;;;;2.95;0.20;;;23.20;47.90;;;;;;5038992;28;20116;-53
2021/07/30 05:40:46;;;;;;;2.75;0.40;;;23.20;47.90;;;;;;5038847;28;20055;-55
2021/07/30 05:43:15;;;;;;;3.17;0.30;;;23.20;47.90;;;;;;5038546;28;20041;-53
2021/07/30 05:45:42;;;;;;;2.45;0.30;;;23.20;48.00;;;;;;5034814;28;20072;-55
2021/07/30 05:48:09;;;;;;;0.60;0.40;;;23.20;48.00;;;;;;5039137;28;20515;-53
2021/07/30 05:50:36;;;;;;;3.20;0.50;;;23.20;48.10;;;;;;5041392;28;20095;-54
2021/07/30 05:53:04;;;;;;;1.95;0.20;;;23.20;48.10;;;;;;5055913;28;20041;-55
2021/07/30 05:55:32;;;;;;;1.13;0.20;;;23.20;48.20;;;;;;5044822;28;20045;-54
2021/07/30 05:57:59;;;;;;;2.30;0.28;;;23.20;48.50;;;;;;5045219;28;20068;-51
2021/07/30 06:00:28;;;;;;;3.72;0.30;;;23.20;48.70;;;;;;5045442;28;20655;-51
2021/07/30 06:02:55;;;;;;;9.95;7.35;;;23.20;48.90;;;;;;5042572;28;20115;-50
2021/07/30 06:05:22;;;;;;;4.03;2.75;;;23.20;49.10;;;;;;5040298;28;20695;-54
2021/07/30 06:07:49;;;;;;;3.15;2.85;;;23.20;49.30;;;;;;5038746;28;20081;-53
2021/07/30 06:10:16;;;;;;;1.50;0.95;;;23.20;49.50;;;;;;5042653;28;20029;-54
2021/07/30 06:12:43;;;;;;;0.90;0.90;;;23.20;49.60;;;;;;5039677;28;20401;-55
2021/07/30 06:15:11;;;;;;;0.32;0.32;;;23.20;49.70;;;;;;5033129;28;20072;-53
2021/07/30 06:17:39;;;;;;;2.83;0.30;;;23.20;49.80;;;;;;5038597;28;20125;-49
2021/07/30 06:20:08;;;;;;;0.90;0.28;;;23.20;49.80;;;;;;5033456;28;20037;-54
2021/07/30 06:22:37;;;;;;;1.55;0.20;;;23.20;50.60;;;;;;5035871;28;20041;-55
2021/07/30 06:25:06;;;;;;;3.88;1.85;;;23.20;50.20;;;;;;5036412;28;20067;-56
2021/07/30 06:27:34;;;;;;;1.60;0.20;;;23.20;50.20;;;;;;5036104;28;20697;-53
2021/07/30 06:30:01;;;;;;;2.10;0.20;;;23.20;50.40;;;;;;5039017;28;20053;-56
2021/07/30 06:32:28;;;;;;;1.50;0.20;;;23.20;50.40;;;;;;5035891;28;20044;-57
2021/07/30 06:34:57;;;;;;;1.55;0.38;;;23.20;50.50;;;;;;5042405;28;20103;-54
2021/07/30 06:37:24;;;;;;;0.30;0.30;;;23.20;50.60;;;;;;5042999;28;20582;-55
2021/07/30 06:39:51;;;;;;;27.67;0.90;;;23.20;50.70;;;;;;5038675;28;20045;-57
2021/07/30 06:42:18;;;;;;;1.10;0.50;;;23.20;50.70;;;;;;5043603;28;20359;-56
2021/07/30 06:44:47;;;;;;;1.85;0.13;;;23.20;50.70;;;;;;5036896;28;20119;-55
2021/07/30 06:47:14;;;;;;;1.98;0.28;;;23.20;50.70;;;;;;5038159;28;20053;-54
2021/07/30 06:49:42;;;;;;;8.52;0.43;;;23.20;50.70;;;;;;5035464;28;20541;-54
2021/07/30 06:52:10;;;;;;;2.17;0.30;;;23.20;50.80;;;;;;5031989;28;20129;-57
2021/07/30 06:54:37;;;;;;;1.33;0.50;;;23.20;50.90;;;;;;5031969;28;20072;-50
2021/07/30 06:57:05;;;;;;;4.47;0.20;;;23.20;50.90;;;;;;5037842;28;20092;-55
2021/07/30 06:59:32;;;;;;;1.20;0.17;;;23.20;51.00;;;;;;5043188;28;20091;-55
2021/07/30 07:02:01;;;;;;;0.52;0.30;;;23.20;51.00;;;;;;5042325;28;20090;-56
2021/07/30 07:04:29;;;;;;;2.17;0.20;;;23.30;51.20;;;;;;5039139;28;20422;-50
2021/07/30 07:06:57;;;;;;;3.33;0.30;;;23.20;51.20;;;;;;5034258;28;20538;-56
2021/07/30 07:09:26;;;;;;;0.55;0.20;;;23.20;51.30;;;;;;5031022;28;20050;-58
2021/07/30 07:11:53;;;;;;;2.60;1.40;;;23.20;51.50;;;;;;5035260;28;20095;-55
2021/07/30 07:14:20;;;;;;;4.72;0.30;;;23.30;51.60;;;;;;5038455;28;20045;-56
2021/07/30 07:16:47;;;;;;;1.58;0.32;;;23.20;51.60;;;;;;5031096;28;20087;-56
2021/07/30 07:19:14;;;;;;;3.53;0.30;;;23.20;51.70;;;;;;5037816;28;20050;-57
2021/07/30 07:21:41;;;;;;;3.60;0.57;;;23.20;51.80;;;;;;5043165;28;20048;-49
2021/07/30 07:24:09;;;;;;;6.22;1.73;;;23.30;52.00;;;;;;5048866;28;20047;-50
2021/07/30 07:26:39;;;;;;;1.17;0.30;;;23.30;52.10;;;;;;5045351;28;20103;-44
2021/07/30 07:29:07;;;;;;;3.22;0.30;;;23.30;52.20;;;;;;5028039;28;20037;-37
2021/07/30 07:31:34;;;;;;;1.17;0.60;;;23.30;52.30;;;;;;5044252;28;20041;-37
2021/07/30 07:34:01;;;;;;;1.00;0.32;;;23.30;52.50;;;;;;5046947;28;20095;-38
2021/07/30 07:36:29;;;;;;;3.00;0.55;;;23.30;52.60;;;;;;5033066;28;20049;-36
2021/07/30 07:38:57;;;;;;;2.58;0.50;;;23.40;52.70;;;;;;5047853;28;20045;-39
2021/07/30 07:41:25;;;;;;;6.18;0.43;;;23.30;52.70;;;;;;5039784;28;20266;-45
2021/07/30 07:43:54;;;;;;;3.55;0.20;;;23.40;52.80;;;;;;5038125;28;20574;-43
2021/07/30 07:46:21;;;;;;;4.40;0.30;;;23.40;52.90;;;;;;5037619;28;20049;-50
2021/07/30 07:48:48;;;;;;;2.63;0.30;;;23.40;53.10;;;;;;5031274;28;20037;-45
2021/07/30 07:51:15;;;;;;;2.38;0.20;;;23.40;53.40;;;;;;5048623;28;20560;-47
2021/07/30 07:53:42;;;;;;;3.25;0.60;;;23.50;53.50;;;;;;5035948;28;20519;-48
2021/07/30 07:56:10;;;;;;;3.60;0.20;;;23.50;53.60;;;;;;5040990;28;20099;-48
2021/07/30 07:58:38;;;;;;;0.50;0.50;;;23.50;53.70;;;;;;5044480;28;20156;-49
2021/07/30 08:01:06;;;;;;;2.75;0.30;;;23.50;53.70;;;;;;5035852;28;20041;-51
2021/07/30 08:03:33;;;;;;;1.88;0.20;;;23.50;53.60;;;;;;5047535;28;20044;-58
2021/07/30 08:06:00;;;;;;;0.63;0.20;;;23.50;53.60;;;;;;5038942;28;20049;-58
2021/07/30 08:08:28;;;;;;;2.15;0.20;;;23.50;53.60;;;;;;5040513;28;20628;-53
2021/07/30 08:10:55;;;;;;;2.42;0.40;;;23.50;53.70;;;;;;5036380;28;20087;-49
2021/07/30 08:13:22;;;;;;;4.05;0.55;;;23.60;53.80;;;;;;5038940;28;20037;-53
2021/07/30 08:15:49;;;;;;;0.90;0.20;;;23.60;53.90;;;;;;5045544;28;20561;-49
2021/07/30 08:18:17;;;;;;;0.30;0.13;;;23.60;53.90;;;;;;5030734;28;20133;-54
2021/07/30 08:20:45;;;;;;;0.38;0.30;;;23.60;53.90;;;;;;5041185;28;20094;-54
2021/07/30 08:23:12;;;;;;;2.90;1.05;;;23.60;53.90;;;;;;5041335;28;20722;-63
2021/07/30 08:25:39;;;;;;;2.60;0.20;;;23.60;54.00;;;;;;5035377;28;20576;-61
2021/07/30 08:28:06;;;;;;;1.50;0.40;;;23.60;54.00;;;;;;5042788;28;20080;-59
2021/07/30 08:30:35;;;;;;;0.63;0.40;;;23.60;54.00;;;;;;5028075;28;20132;-59
2021/07/30 08:33:02;;;;;;;0.20;0.10;;;23.60;54.10;;;;;;5041321;28;20040;-55
2021/07/30 08:35:30;;;;;;;1.13;0.65;;;23.70;54.20;;;;;;5045077;28;20048;-53
2021/07/30 08:37:58;;;;;;;3.03;0.30;;;23.70;54.30;;;;;;5031411;28;20666;-52
2021/07/30 08:40:30;;;;;;;1.58;0.25;;;23.70;54.30;;;;;;5033236;28;20053;-46
2021/07/30 08:42:57;;;;;;;0.43;0.32;;;23.70;54.30;;;;;;5037881;28;20041;-46
2021/07/30 08:45:25;;;;;;;1.15;0.20;;;23.70;54.30;;;;;;5027813;28;20645;-48
2021/07/30 08:47:52;;;;;;;1.23;0.38;;;23.70;54.30;;;;;;5045502;28;20076;-46
2021/07/30 08:50:19;;;;;;;2.58;0.30;;;23.70;54.40;;;;;;5040563;28;20037;-55
2021/07/30 08:52:56;;;;;;;0.43;0.20;;;23.70;54.50;;;;;;5038933;28;20204;-52
2021/07/30 08:55:29;;;;;;;5.88;1.10;;;23.80;54.60;;;;;;5038205;28;20051;-55
2021/07/30 08:57:56;;;;;;;0.30;0.10;;;23.80;54.70;;;;;;5045289;28;20041;-50
2021/07/30 09:00:24;;;;;;;1.73;0.15;;;23.80;54.70;;;;;;5027301;28;20049;-54
2021/07/30 09:02:51;;;;;;;1.75;0.10;;;23.80;54.80;;;;;;5034331;28;20133;-50
2021/07/30 09:05:28;;;;;;;0.35;0.10;;;23.90;54.90;;;;;;5041715;28;20866;-50
2021/07/30 09:07:58;;;;;;;6.38;0.20;;;23.90;55.00;;;;;;5037280;28;20530;-58
2021/07/30 09:10:28;;;;;;;0.70;0.17;;;23.90;55.00;;;;;;5045145;28;20049;-60
2021/07/30 09:13:10;;;;;;;2.15;0.30;;;23.90;55.00;;;;;;5029497;28;20029;-58
2021/07/30 09:15:37;;;;;;;1.10;0.10;;;23.90;55.00;;;;;;5031623;28;20519;-53
2021/07/30 09:18:05;;;;;;;0.77;0.20;;;23.90;55.10;;;;;;5030804;28;20041;-57
2021/07/30 09:20:32;;;;;;;1.30;0.30;;;24.00;55.20;;;;;;5041675;28;20772;-53
2021/07/30 09:23:01;;;;;;;0.20;0.20;;;24.00;55.10;;;;;;5037393;28;20037;-57
2021/07/30 09:25:36;;;;;;;2.53;0.20;;;24.00;55.20;;;;;;5033449;28;20049;-53
2021/07/30 09:28:04;;;;;;;0.35;0.20;;;24.10;55.20;;;;;;5030533;28;20041;-57
2021/07/30 09:30:32;;;;;;;2.97;0.50;;;24.10;55.20;;;;;;5030414;28;20096;-45
2021/07/30 09:32:59;;;;;;;0.77;0.40;;;24.10;55.20;;;;;;5046410;28;20131;-48
2021/07/30 09:35:26;;;;;;;0.50;0.20;;;24.10;55.30;;;;;;5042751;28;20044;-55
2021/07/30 09:38:17;;;;;;;1.05;0.20;;;24.20;56.00;;;;;;5042711;28;20048;-49
2021/07/30 09:40:45;;;;;;;0.20;0.20;;;24.20;55.30;;;;;;5029515;28;20045;-61
2021/07/30 09:43:22;;;;;;;0.57;0.10;;;24.20;55.30;;;;;;5037376;28;20430;-59
2021/07/30 09:45:51;;;;;;;1.55;0.20;;;24.20;55.20;;;;;;5045546;28;20053;-54
2021/07/30 09:48:19;;;;;;;0.50;0.50;;;24.20;55.20;;;;;;5032483;28;20591;-61
2021/07/30 09:50:49;;;;;;;0.20;0.10;;;24.20;55.10;;;;;;5036505;28;20047;-60
2021/07/30 09:53:18;;;;;;;3.45;0.32;;;24.30;55.10;;;;;;5040221;28;20037;-61
2021/07/30 09:55:45;;;;;;;1.42;0.10;;;24.30;55.10;;;;;;5044163;28;20099;-58
2021/07/30 09:58:12;;;;;;;3.47;0.10;;;24.30;55.00;;;;;;5031163;28;20075;-43
2021/07/30 10:00:40;;;;;;;2.47;0.85;;;24.30;55.00;;;;;;5029603;28;20040;-51
2021/07/30 10:03:10;;;;;;;0.98;0.22;;;24.40;55.10;;;;;;5042507;28;20095;-47
2021/07/30 10:05:38;;;;;;;1.70;0.13;;;24.40;54.90;;;;;;5032198;28;20068;-54
2021/07/30 10:08:06;;;;;;;2.03;0.25;;;24.40;54.60;;;;;;5034013;28;20613;-54
2021/07/30 10:10:39;;;;;;;4.03;0.30;;;24.40;54.20;;;;;;5044304;28;20862;-48
2021/07/30 10:13:13;;;;;;;1.67;0.10;;;24.50;54.10;;;;;;5044440;28;20092;-58
2021/07/30 10:15:43;;;;;;;1.40;0.13;;;24.40;53.90;;;;;;5039285;28;20077;-61
2021/07/30 10:18:12;;;;;;;0.80;0.15;;;24.50;53.60;;;;;;5036903;28;20124;-60
2021/07/30 10:20:42;;;;;;;4.03;0.10;;;24.50;53.30;;;;;;5037346;28;20056;-58
2021/07/30 10:23:12;;;;;;;2.00;0.10;;;24.60;53.20;;;;;;5040440;28;20041;-61
2021/07/30 10:25:43;;;;;;;8.40;0.40;;;24.60;53.00;;;;;;5040265;28;20431;-60
2021/07/30 10:28:18;;;;;;;2.58;0.10;;;24.60;52.80;;;;;;5036736;28;20041;-60
2021/07/30 10:30:53;;;;;;;0.10;0.10;;;24.60;52.80;;;;;;5033123;28;20522;-60
2021/07/30 10:33:49;;;;;;;0.45;0.10;;;24.70;52.50;;;;;;5043996;28;20048;-60
2021/07/30 10:36:38;;;;;;;1.93;0.20;;;24.70;52.20;;;;;;5036012;28;20489;-60
2021/07/30 10:39:08;;;;;;;0.93;0.20;;;24.60;51.90;;;;;;5045111;28;20053;-60
2021/07/30 10:41:36;;;;;;;0.90;0.20;;;24.70;51.50;;;;;;5043293;28;20044;-60
2021/07/30 10:44:08;;;;;;;2.05;0.10;;;24.70;51.40;;;;;;5042614;28;20069;-60
2021/07/30 10:46:35;;;;;;;0.20;0.10;;;24.70;51.30;;;;;;5048041;28;20106;-60
2021/07/30 10:49:23;;;;;;;1.80;0.35;;;24.70;51.20;;;;;;5039296;28;20513;-60
2021/07/30 10:51:50;;;;;;;0.10;0.10;;;24.70;51.30;;;;;;5047657;28;20060;-56
2021/07/30 10:54:47;;;;;;;5.05;0.28;;;24.70;51.30;;;;;;5031868;28;20065;-55
2021/07/30 10:57:50;;;;;;;3.92;0.20;;;24.80;51.30;;;;;;5046755;28;20055;-51
2021/07/30 11:00:18;;;;;;;0.45;0.10;;;24.80;51.40;;;;;;5034383;28;20041;-57
2021/07/30 11:03:02;;;;;;;2.38;0.10;;;24.80;51.20;;;;;;5037244;28;20041;-56
2021/07/30 11:05:29;;;;;;;0.98;0.10;;;24.80;50.90;;;;;;5037404;28;20061;-57
2021/07/30 11:08:01;;;;;;;0.15;0.10;;;24.80;50.30;;;;;;5031860;28;20046;-52
2021/07/30 11:10:28;;;;;;;0.40;0.17;;;24.80;49.70;;;;;;5036454;28;20044;-55
2021/07/30 11:12:57;;;;;;;7.00;0.17;;;24.80;49.40;;;;;;5043873;28;20033;-59
2021/07/30 11:15:32;;;;;;;0.60;0.10;;;24.80;48.90;;;;;;5044903;28;20053;-57
2021/07/30 11:18:02;;;;;;;2.28;0.10;;;24.90;48.40;;;;;;5047871;28;20049;-57
2021/07/30 11:20:36;;;;;;;3.38;0.10;;;24.90;47.80;;;;;;5047593;28;20110;-58
2021/07/30 11:23:05;;;;;;;1.65;0.20;;;24.90;46.50;;;;;;5048020;28;20524;-60
2021/07/30 11:25:32;;;;;;;0.10;0.10;;;24.90;46.10;;;;;;5047916;28;20083;-61
2021/07/30 11:28:00;;;;;;;0.40;0.10;;;24.90;45.60;;;;;;5048487;28;20045;-62
2021/07/30 11:30:31;;;;;;;0.15;0.10;;;24.90;45.20;;;;;;5049285;28;20413;-61
2021/07/30 11:33:00;;;;;;;4.40;0.10;;;25.00;44.60;;;;;;5034860;28;20034;-61
2021/07/30 11:35:30;;;;;;;0.10;0.10;;;25.00;44.60;;;;;;5042701;28;20478;-60
2021/07/30 11:38:01;;;;;;;1.02;0.43;;;25.00;44.70;;;;;;5047906;28;20120;-60
2021/07/30 11:40:31;;;;;;;0.65;0.10;;;25.00;44.30;;;;;;5041076;28;20049;-60
2021/07/30 11:43:09;;;;;;;1.17;0.05;;;25.10;44.30;;;;;;5032074;28;20043;-59
2021/07/30 11:45:37;;;;;;;3.13;0.10;;;25.10;43.80;;;;;;5044706;28;20052;-60
2021/07/30 11:48:12;;;;;;;1.73;0.00;;;25.10;43.50;;;;;;5033059;28;20541;-60
2021/07/30 11:50:40;;;;;;;2.53;0.00;;;25.20;42.80;;;;;;5045417;28;20045;-59
2021/07/30 11:53:08;;;;;;;0.10;0.03;;;25.20;42.20;;;;;;5045945;28;20388;-59
2021/07/30 11:55:37;;;;;;;2.28;0.10;;;25.20;42.20;;;;;;5036732;28;20056;-57
2021/07/30 11:58:12;;;;;;;0.65;0.10;;;25.20;42.30;;;;;;5039207;28;20067;-59
2021/07/30 12:00:40;;;;;;;0.10;0.00;;;25.30;42.40;;;;;;5046955;28;20041;-57
2021/07/30 12:03:18;;;;;;;1.00;0.00;;;25.30;42.20;;;;;;5043775;28;20265;-57
2021/07/30 12:05:47;;;;;;;1.05;0.20;;;25.30;41.90;;;;;;5036779;28;20052;-57
2021/07/30 12:08:16;;;;;;;0.75;0.10;;;25.30;42.00;;;;;;5035353;28;20541;-58
2021/07/30 12:10:43;;;;;;;0.25;0.10;;;25.40;42.10;;;;;;5043999;28;20051;-57
2021/07/30 12:13:12;;;;;;;0.43;0.10;;;25.50;42.10;;;;;;5046371;28;20037;-56
2021/07/30 12:15:40;;;;;;;2.47;0.10;;;25.50;42.10;;;;;;5043783;28;20049;-56
2021/07/30 12:18:07;;;;;;;0.03;0.00;;;25.50;41.80;;;;;;5040551;28;20498;-56
2021/07/30 12:20:36;;;;;;;2.33;0.10;;;25.50;41.50;;;;;;5038330;28;20523;-46
2021/07/30 12:23:06;;;;;;;0.85;0.00;;;25.60;41.30;;;;;;5033185;28;20052;-54
2021/07/30 12:25:35;;;;;;;0.43;0.17;;;25.60;41.10;;;;;;5033300;28;20534;-55
2021/07/30 12:28:06;;;;;;;0.10;0.00;;;25.70;41.70;;;;;;5039893;28;20037;-50
2021/07/30 12:30:35;;;;;;;4.22;0.10;;;25.70;40.70;;;;;;5035607;28;20041;-52
2021/07/30 12:33:02;;;;;;;4.07;0.10;;;25.80;40.60;;;;;;5036654;28;20065;-49
2021/07/30 12:35:34;;;;;;;0.57;0.38;;;25.80;40.40;;;;;;5045542;28;20877;-55
2021/07/30 12:38:04;;;;;;;0.60;0.00;;;25.90;40.20;;;;;;5033792;28;20064;-48
2021/07/30 12:40:31;;;;;;;0.77;0.10;;;25.90;40.20;;;;;;5037420;28;20049;-51
2021/07/30 12:43:16;;;;;;;1.50;0.20;;;26.00;40.10;;;;;;5041792;28;20041;-45
2021/07/30 12:45:47;;;;;;;1.40;0.10;;;26.10;39.90;;;;;;5031850;28;20046;-54
2021/07/30 12:48:18;;;;;;;2.05;0.22;;;26.10;39.80;;;;;;5033537;28;20041;-55
2021/07/30 12:50:46;;;;;;;1.35;0.10;;;26.20;39.90;;;;;;5033619;28;20045;-53
2021/07/30 12:53:16;;;;;;;0.73;0.10;;;26.20;39.90;;;;;;5040870;28;20120;-51
2021/07/30 12:56:04;;;;;;;0.75;0.10;;;26.30;39.90;;;;;;5046080;28;20491;-51
2021/07/30 12:58:33;;;;;;;0.57;0.05;;;26.40;39.60;;;;;;5033948;28;20119;-59